sensor_id;sensor_type;location;lat;lon;timestamp;pressure;altitude;pressure_sealevel;temperature;humidity
59190;BME280;50749;51.636;4.948;2023-02-21T00:02:50;102157.16;;;17.68;55.77
59190;BME280;50749;51.636;4.948;2023-02-21T00:05:35;102159.13;;;17.68;56.08
59190;BME280;50749;51.636;4.948;2023-02-21T00:08:19;102160.56;;;17.65;55.77
59190;BME280;50749;51.636;4.948;2023-02-21T00:11:03;102158.97;;;17.64;55.88
59190;BME280;50749;51.636;4.948;2023-02-21T00:13:48;102154.56;;;17.63;55.97
59190;BME280;50749;51.636;4.948;2023-02-21T00:16:32;102162.06;;;17.62;56.37
59190;BME280;50749;51.636;4.948;2023-02-21T00:19:17;102173.13;;;17.62;56.38
59190;BME280;50749;51.636;4.948;2023-02-21T00:22:02;102169.53;;;17.62;56.16
59190;BME280;50749;51.636;4.948;2023-02-21T00:24:46;102179.78;;;17.61;56.23
59190;BME280;50749;51.636;4.948;2023-02-21T00:27:31;102173.44;;;17.61;56.03
59190;BME280;50749;51.636;4.948;2023-02-21T00:30:15;102182.84;;;17.60;56.56
59190;BME280;50749;51.636;4.948;2023-02-21T00:33:00;102176.34;;;17.56;56.38
59190;BME280;50749;51.636;4.948;2023-02-21T00:35:44;102175.22;;;17.57;56.08
59190;BME280;50749;51.636;4.948;2023-02-21T00:38:28;102182.69;;;17.56;56.10
59190;BME280;50749;51.636;4.948;2023-02-21T00:41:13;102178.00;;;17.57;56.22
59190;BME280;50749;51.636;4.948;2023-02-21T00:43:57;102173.59;;;17.56;56.33
59190;BME280;50749;51.636;4.948;2023-02-21T00:46:43;102178.31;;;17.55;56.13
59190;BME280;50749;51.636;4.948;2023-02-21T00:49:27;102178.63;;;17.54;56.24
59190;BME280;50749;51.636;4.948;2023-02-21T00:52:12;102174.22;;;17.53;56.42
59190;BME280;50749;51.636;4.948;2023-02-21T00:54:56;102174.22;;;17.53;56.16
59190;BME280;50749;51.636;4.948;2023-02-21T00:57:41;102174.22;;;17.53;56.53
59190;BME280;50749;51.636;4.948;2023-02-21T01:00:25;102170.66;;;17.52;56.49
59190;BME280;50749;51.636;4.948;2023-02-21T01:03:10;102165.44;;;17.51;56.29
59190;BME280;50749;51.636;4.948;2023-02-21T01:05:54;102165.44;;;17.51;56.25
59190;BME280;50749;51.636;4.948;2023-02-21T01:08:41;102150.00;;;17.50;56.33
59190;BME280;50749;51.636;4.948;2023-02-21T01:11:26;102156.34;;;17.50;56.40
59190;BME280;50749;51.636;4.948;2023-02-21T01:14:11;102151.16;;;17.49;56.46
59190;BME280;50749;51.636;4.948;2023-02-21T01:16:55;102145.63;;;17.49;56.65
59190;BME280;50749;51.636;4.948;2023-02-21T01:19:41;102157.78;;;17.48;56.67
59190;BME280;50749;51.636;4.948;2023-02-21T01:22:26;102143.97;;;17.48;56.49
59190;BME280;50749;51.636;4.948;2023-02-21T01:25:11;102142.34;;;17.46;56.63
59190;BME280;50749;51.636;4.948;2023-02-21T01:27:56;102144.63;;;17.44;56.46
59190;BME280;50749;51.636;4.948;2023-02-21T01:30:40;102139.91;;;17.45;56.33
59190;BME280;50749;51.636;4.948;2023-02-21T01:33:25;102136.66;;;17.43;56.51
59190;BME280;50749;51.636;4.948;2023-02-21T01:36:09;102141.38;;;17.42;56.78
59190;BME280;50749;51.636;4.948;2023-02-21T01:38:54;102135.84;;;17.42;56.44
59190;BME280;50749;51.636;4.948;2023-02-21T01:41:39;102135.03;;;17.42;56.72
59190;BME280;50749;51.636;4.948;2023-02-21T01:44:34;102134.19;;;17.41;56.62
59190;BME280;50749;51.636;4.948;2023-02-21T01:47:20;102144.44;;;17.41;56.71
59190;BME280;50749;51.636;4.948;2023-02-21T01:50:28;102130.94;;;17.39;56.47
59190;BME280;50749;51.636;4.948;2023-02-21T01:53:21;102129.34;;;17.38;56.83
59190;BME280;50749;51.636;4.948;2023-02-21T01:56:07;102130.94;;;17.39;56.42
59190;BME280;50749;51.636;4.948;2023-02-21T01:58:54;102137.63;;;17.38;56.96
59190;BME280;50749;51.636;4.948;2023-02-21T02:04:46;102126.38;;;17.35;56.57
59190;BME280;50749;51.636;4.948;2023-02-21T02:07:31;102124.47;;;17.35;56.77
59190;BME280;50749;51.636;4.948;2023-02-21T02:10:16;102124.78;;;17.34;56.61
59190;BME280;50749;51.636;4.948;2023-02-21T02:15:53;102127.53;;;17.34;56.96
59190;BME280;50749;51.636;4.948;2023-02-21T02:32:45;102105.59;;;17.29;56.65
59190;BME280;50749;51.636;4.948;2023-02-21T02:35:39;102101.97;;;17.28;56.63
59190;BME280;50749;51.636;4.948;2023-02-21T02:43:34;102099.56;;;17.26;57.11
59190;BME280;50749;51.636;4.948;2023-02-21T02:46:08;102097.13;;;17.25;56.80
59190;BME280;50749;51.636;4.948;2023-02-21T02:48:39;102091.59;;;17.25;57.22
59190;BME280;50749;51.636;4.948;2023-02-21T02:51:11;102088.31;;;17.23;57.08
59190;BME280;50749;51.636;4.948;2023-02-21T02:53:38;102091.91;;;17.23;57.02
59190;BME280;50749;51.636;4.948;2023-02-21T02:56:05;102093.03;;;17.22;56.92
59190;BME280;50749;51.636;4.948;2023-02-21T02:58:53;102094.69;;;17.23;56.72
59190;BME280;50749;51.636;4.948;2023-02-21T03:02:03;102091.41;;;17.21;56.74
59190;BME280;50749;51.636;4.948;2023-02-21T03:10:27;102081.84;;;17.19;57.00
59190;BME280;50749;51.636;4.948;2023-02-21T03:15:59;102073.88;;;17.17;57.06
59190;BME280;50749;51.636;4.948;2023-02-21T03:18:33;102075.50;;;17.18;56.91
59190;BME280;50749;51.636;4.948;2023-02-21T03:21:04;102073.88;;;17.17;57.20
59190;BME280;50749;51.636;4.948;2023-02-21T03:23:33;102074.66;;;17.18;56.88
59190;BME280;50749;51.636;4.948;2023-02-21T03:26:04;102075.81;;;17.17;56.96
59190;BME280;50749;51.636;4.948;2023-02-21T03:28:31;102081.66;;;17.15;56.94
59190;BME280;50749;51.636;4.948;2023-02-21T03:30:59;102076.94;;;17.16;57.17
59190;BME280;50749;51.636;4.948;2023-02-21T03:33:27;102081.66;;;17.15;57.06
59190;BME280;50749;51.636;4.948;2023-02-21T03:35:53;102080.88;;;17.15;57.09
59190;BME280;50749;51.636;4.948;2023-02-21T03:38:19;102083.63;;;17.15;57.04
59190;BME280;50749;51.636;4.948;2023-02-21T03:40:45;102078.41;;;17.13;57.22
59190;BME280;50749;51.636;4.948;2023-02-21T03:43:10;102077.59;;;17.13;57.10
59190;BME280;50749;51.636;4.948;2023-02-21T03:45:36;102074.34;;;17.11;56.92
59190;BME280;50749;51.636;4.948;2023-02-21T03:48:03;102075.97;;;17.12;57.34
59190;BME280;50749;51.636;4.948;2023-02-21T03:50:29;102077.91;;;17.11;57.25
59190;BME280;50749;51.636;4.948;2023-02-21T03:52:55;102075.13;;;17.11;57.14
59190;BME280;50749;51.636;4.948;2023-02-21T03:55:20;102074.34;;;17.11;57.04
59190;BME280;50749;51.636;4.948;2023-02-21T03:57:46;102075.97;;;17.12;57.14
59190;BME280;50749;51.636;4.948;2023-02-21T04:00:13;102075.13;;;17.11;57.29
59190;BME280;50749;51.636;4.948;2023-02-21T04:02:39;102074.34;;;17.11;57.06
59190;BME280;50749;51.636;4.948;2023-02-21T04:05:05;102072.69;;;17.09;57.08
59190;BME280;50749;51.636;4.948;2023-02-21T04:07:31;102065.56;;;17.08;57.00
59190;BME280;50749;51.636;4.948;2023-02-21T04:09:57;102061.66;;;17.09;57.40
59190;BME280;50749;51.636;4.948;2023-02-21T04:12:23;102068.31;;;17.08;57.16
59190;BME280;50749;51.636;4.948;2023-02-21T04:14:49;102062.81;;;17.08;57.14
59190;BME280;50749;51.636;4.948;2023-02-21T04:17:17;102065.56;;;17.08;57.06
59190;BME280;50749;51.636;4.948;2023-02-21T04:19:43;102061.66;;;17.09;57.30
59190;BME280;50749;51.636;4.948;2023-02-21T04:22:08;102063.28;;;17.11;57.25
59190;BME280;50749;51.636;4.948;2023-02-21T04:24:34;102064.94;;;17.12;57.47
59190;BME280;50749;51.636;4.948;2023-02-21T04:27:00;102060.38;;;17.16;56.90
59190;BME280;50749;51.636;4.948;2023-02-21T04:29:27;102059.09;;;17.22;56.57
59190;BME280;50749;51.636;4.948;2023-02-21T04:31:52;102050.63;;;17.27;56.54
59190;BME280;50749;51.636;4.948;2023-02-21T04:34:20;102065.09;;;17.33;56.73
59190;BME280;50749;51.636;4.948;2023-02-21T04:36:46;102063.00;;;17.38;56.44
59190;BME280;50749;51.636;4.948;2023-02-21T04:39:12;102066.41;;;17.44;56.19
59190;BME280;50749;51.636;4.948;2023-02-21T04:41:38;102072.56;;;17.50;56.17
59190;BME280;50749;51.636;4.948;2023-02-21T04:44:04;102062.50;;;17.54;56.15
59190;BME280;50749;51.636;4.948;2023-02-21T04:46:31;102071.75;;;17.58;56.06
59190;BME280;50749;51.636;4.948;2023-02-21T04:48:57;102068.03;;;17.62;55.80
59190;BME280;50749;51.636;4.948;2023-02-21T04:51:23;102063.47;;;17.67;56.22
59190;BME280;50749;51.636;4.948;2023-02-21T04:53:51;102054.84;;;17.68;56.22
59190;BME280;50749;51.636;4.948;2023-02-21T04:56:18;102062.97;;;17.73;55.93
59190;BME280;50749;51.636;4.948;2023-02-21T04:58:46;102052.41;;;17.75;56.47
59190;BME280;50749;51.636;4.948;2023-02-21T05:01:13;102051.41;;;17.80;56.11
59190;BME280;50749;51.636;4.948;2023-02-21T05:03:40;102051.22;;;17.85;56.49
59190;BME280;50749;51.636;4.948;2023-02-21T05:06:05;102050.28;;;17.90;56.35
59190;BME280;50749;51.636;4.948;2023-02-21T05:08:31;102050.13;;;17.95;56.44
59190;BME280;50749;51.636;4.948;2023-02-21T05:10:57;102062.97;;;17.99;56.25
59190;BME280;50749;51.636;4.948;2023-02-21T05:13:23;102049.28;;;18.03;56.34
59190;BME280;50749;51.636;4.948;2023-02-21T05:15:49;102055.28;;;18.05;56.34
59190;BME280;50749;51.636;4.948;2023-02-21T05:18:15;102059.03;;;18.09;56.37
59190;BME280;50749;51.636;4.948;2023-02-21T05:20:48;102053.97;;;18.11;56.68
59190;BME280;50749;51.636;4.948;2023-02-21T05:23:15;102059.66;;;18.15;56.81
59190;BME280;50749;51.636;4.948;2023-02-21T05:25:43;102062.09;;;18.16;56.12
59190;BME280;50749;51.636;4.948;2023-02-21T05:28:10;102069.75;;;18.19;56.25
59190;BME280;50749;51.636;4.948;2023-02-21T05:30:36;102064.38;;;18.23;56.58
59190;BME280;50749;51.636;4.948;2023-02-21T05:33:02;102059.31;;;18.25;56.71
59190;BME280;50749;51.636;4.948;2023-02-21T05:35:28;102054.25;;;18.27;56.70
59190;BME280;50749;51.636;4.948;2023-02-21T05:37:53;102059.97;;;18.31;56.65
59190;BME280;50749;51.636;4.948;2023-02-21T05:40:19;102057.66;;;18.33;56.67
59190;BME280;50749;51.636;4.948;2023-02-21T05:42:47;102053.72;;;18.34;56.68
59190;BME280;50749;51.636;4.948;2023-02-21T05:45:12;102049.97;;;18.38;56.77
59190;BME280;50749;51.636;4.948;2023-02-21T05:47:38;102052.09;;;18.42;56.66
59190;BME280;50749;51.636;4.948;2023-02-21T05:50:04;102050.13;;;18.42;56.53
59190;BME280;50749;51.636;4.948;2023-02-21T05:52:31;102041.47;;;18.44;56.62
59190;BME280;50749;51.636;4.948;2023-02-21T05:54:56;102049.47;;;18.45;56.78
59190;BME280;50749;51.636;4.948;2023-02-21T05:57:23;102051.09;;;18.46;56.94
59190;BME280;50749;51.636;4.948;2023-02-21T05:59:48;102052.38;;;18.49;56.90
59190;BME280;50749;51.636;4.948;2023-02-21T06:02:15;102057.56;;;18.50;56.64
59190;BME280;50749;51.636;4.948;2023-02-21T06:04:40;102052.88;;;18.51;56.80
59190;BME280;50749;51.636;4.948;2023-02-21T06:07:07;102045.38;;;18.51;56.67
59190;BME280;50749;51.636;4.948;2023-02-21T06:09:33;102040.31;;;18.53;56.47
59190;BME280;50749;51.636;4.948;2023-02-21T06:11:59;102045.50;;;18.55;56.67
59190;BME280;50749;51.636;4.948;2023-02-21T06:14:25;102057.41;;;18.55;56.44
59190;BME280;50749;51.636;4.948;2023-02-21T06:16:51;102054.63;;;18.55;56.36
59190;BME280;50749;51.636;4.948;2023-02-21T06:19:17;102055.09;;;18.57;56.32
59190;BME280;50749;51.636;4.948;2023-02-21T06:21:44;102052.31;;;18.57;56.53
59190;BME280;50749;51.636;4.948;2023-02-21T06:24:10;102050.06;;;18.60;56.15
59190;BME280;50749;51.636;4.948;2023-02-21T06:26:37;102050.06;;;18.60;55.99
59190;BME280;50749;51.636;4.948;2023-02-21T06:29:04;102049.22;;;18.59;56.63
59190;BME280;50749;51.636;4.948;2023-02-21T06:31:30;102044.53;;;18.60;56.13
59190;BME280;50749;51.636;4.948;2023-02-21T06:33:56;102056.41;;;18.60;56.19
59190;BME280;50749;51.636;4.948;2023-02-21T06:36:25;102045.31;;;18.60;56.12
59190;BME280;50749;51.636;4.948;2023-02-21T06:38:54;102046.13;;;18.61;56.20
59190;BME280;50749;51.636;4.948;2023-02-21T06:41:26;102057.19;;;18.61;56.35
59190;BME280;50749;51.636;4.948;2023-02-21T06:43:53;102048.91;;;18.61;56.19
59190;BME280;50749;51.636;4.948;2023-02-21T06:46:22;102048.91;;;18.61;56.30
59190;BME280;50749;51.636;4.948;2023-02-21T06:48:49;102057.19;;;18.61;56.07
59190;BME280;50749;51.636;4.948;2023-02-21T06:51:15;102052.81;;;18.60;56.48
59190;BME280;50749;51.636;4.948;2023-02-21T06:53:42;102056.72;;;18.59;56.17
59190;BME280;50749;51.636;4.948;2023-02-21T06:56:09;102056.41;;;18.60;55.89
59190;BME280;50749;51.636;4.948;2023-02-21T06:58:35;102063.56;;;18.61;56.16
59190;BME280;50749;51.636;4.948;2023-02-21T07:01:01;102056.41;;;18.60;55.89
59190;BME280;50749;51.636;4.948;2023-02-21T07:03:27;102062.75;;;18.61;56.19
59190;BME280;50749;51.636;4.948;2023-02-21T07:05:53;102072.34;;;18.63;55.87
59190;BME280;50749;51.636;4.948;2023-02-21T07:08:19;102068.28;;;18.61;55.96
59190;BME280;50749;51.636;4.948;2023-02-21T07:10:45;102063.56;;;18.61;56.05
59190;BME280;50749;51.636;4.948;2023-02-21T07:13:10;102056.25;;;18.56;56.11
59190;BME280;50749;51.636;4.948;2023-02-21T07:15:36;102067.47;;;18.60;55.91
59190;BME280;50749;51.636;4.948;2023-02-21T07:18:02;102074.97;;;18.60;55.89
59190;BME280;50749;51.636;4.948;2023-02-21T07:20:28;102082.13;;;18.61;56.12
59190;BME280;50749;51.636;4.948;2023-02-21T07:22:54;102069.13;;;18.61;55.62
59190;BME280;50749;51.636;4.948;2023-02-21T07:25:21;102066.69;;;18.60;56.04
59190;BME280;50749;51.636;4.948;2023-02-21T07:27:47;102076.13;;;18.59;56.00
59190;BME280;50749;51.636;4.948;2023-02-21T07:30:15;102078.75;;;18.55;55.56
59190;BME280;50749;51.636;4.948;2023-02-21T07:32:40;102080.22;;;18.52;55.83
59190;BME280;50749;51.636;4.948;2023-02-21T07:35:07;102066.22;;;18.49;55.87
59190;BME280;50749;51.636;4.948;2023-02-21T07:37:33;102068.84;;;18.45;56.10
59190;BME280;50749;51.636;4.948;2023-02-21T07:39:59;102080.56;;;18.42;56.28
59190;BME280;50749;51.636;4.948;2023-02-21T07:42:25;102085.63;;;18.40;56.43
59190;BME280;50749;51.636;4.948;2023-02-21T07:44:56;102085.16;;;18.38;57.01
59190;BME280;50749;51.636;4.948;2023-02-21T07:47:23;102088.25;;;18.36;57.26
59190;BME280;50749;51.636;4.948;2023-02-21T07:49:49;102077.84;;;18.33;57.46
59190;BME280;50749;51.636;4.948;2023-02-21T07:52:16;102072.16;;;18.30;57.41
59190;BME280;50749;51.636;4.948;2023-02-21T07:54:42;102073.78;;;18.31;57.34
59190;BME280;50749;51.636;4.948;2023-02-21T07:57:08;102072.16;;;18.30;57.17
59190;BME280;50749;51.636;4.948;2023-02-21T07:59:34;102078.34;;;18.27;56.97
59190;BME280;50749;51.636;4.948;2023-02-21T08:02:00;102078.69;;;18.25;57.13
59190;BME280;50749;51.636;4.948;2023-02-21T08:04:27;102073.16;;;18.25;56.97
59190;BME280;50749;51.636;4.948;2023-02-21T08:07:00;102072.34;;;18.25;57.21
59190;BME280;50749;51.636;4.948;2023-02-21T08:09:26;102065.16;;;18.24;57.24
59190;BME280;50749;51.636;4.948;2023-02-21T08:11:52;102062.41;;;18.24;56.96
59190;BME280;50749;51.636;4.948;2023-02-21T08:14:18;102063.56;;;18.23;57.16
59190;BME280;50749;51.636;4.948;2023-02-21T08:16:44;102065.16;;;18.24;57.16
59190;BME280;50749;51.636;4.948;2023-02-21T08:19:10;102074.63;;;18.23;56.89
59190;BME280;50749;51.636;4.948;2023-02-21T08:21:36;102071.03;;;18.22;57.11
59190;BME280;50749;51.636;4.948;2023-02-21T08:24:02;102076.91;;;18.20;57.00
59190;BME280;50749;51.636;4.948;2023-02-21T08:26:28;102069.75;;;18.19;57.06
59190;BME280;50749;51.636;4.948;2023-02-21T08:28:54;102068.59;;;18.20;57.05
59190;BME280;50749;51.636;4.948;2023-02-21T08:31:20;102074.50;;;18.19;56.84
59190;BME280;50749;51.636;4.948;2023-02-21T08:33:46;102070.56;;;18.20;57.17
59190;BME280;50749;51.636;4.948;2023-02-21T08:36:12;102066.19;;;18.19;57.38
59190;BME280;50749;51.636;4.948;2023-02-21T08:38:38;102068.13;;;18.18;56.84
59190;BME280;50749;51.636;4.948;2023-02-21T08:41:04;102077.59;;;18.17;56.81
59190;BME280;50749;51.636;4.948;2023-02-21T08:43:31;102068.13;;;18.18;56.98
59190;BME280;50749;51.636;4.948;2023-02-21T08:45:57;102060.13;;;18.17;56.96
59190;BME280;50749;51.636;4.948;2023-02-21T08:48:23;102058.22;;;18.17;56.78
59190;BME280;50749;51.636;4.948;2023-02-21T08:50:49;102058.53;;;18.16;57.06
59190;BME280;50749;51.636;4.948;2023-02-21T08:53:18;102055.78;;;18.16;57.02
59190;BME280;50749;51.636;4.948;2023-02-21T08:55:44;102056.56;;;18.16;57.03
59190;BME280;50749;51.636;4.948;2023-02-21T08:58:11;102058.38;;;18.12;55.41
59190;BME280;50749;51.636;4.948;2023-02-21T09:00:37;102062.28;;;18.11;56.17
59190;BME280;50749;51.636;4.948;2023-02-21T09:03:03;102060.31;;;18.12;55.84
59190;BME280;50749;51.636;4.948;2023-02-21T09:05:30;102057.88;;;18.10;55.47
59190;BME280;50749;51.636;4.948;2023-02-21T09:07:58;102056.44;;;18.04;55.76
59190;BME280;50749;51.636;4.948;2023-02-21T09:10:27;102055.13;;;18.01;55.33
59190;BME280;50749;51.636;4.948;2023-02-21T09:12:53;102054.00;;;18.03;55.78
59190;BME280;50749;51.636;4.948;2023-02-21T09:15:20;102056.44;;;18.04;56.00
59190;BME280;50749;51.636;4.948;2023-02-21T09:17:46;102056.59;;;18.08;56.24
59190;BME280;50749;51.636;4.948;2023-02-21T09:20:16;102060.13;;;18.26;55.47
59190;BME280;50749;51.636;4.948;2023-02-21T09:22:43;102058.97;;;18.27;55.50
59190;BME280;50749;51.636;4.948;2023-02-21T09:25:15;102056.22;;;18.27;55.64
59190;BME280;50749;51.636;4.948;2023-02-21T09:27:41;102050.66;;;18.27;55.60
59190;BME280;50749;51.636;4.948;2023-02-21T09:30:19;102037.31;;;18.29;55.56
59190;BME280;50749;51.636;4.948;2023-02-21T09:32:48;102039.94;;;18.25;55.24
59190;BME280;50749;51.636;4.948;2023-02-21T09:35:15;102040.75;;;18.26;55.63
59190;BME280;50749;51.636;4.948;2023-02-21T09:37:44;102042.56;;;18.22;55.68
59190;BME280;50749;51.636;4.948;2023-02-21T09:43:15;102038.19;;;18.12;54.86
59190;BME280;50749;51.636;4.948;2023-02-21T09:45:44;102033.97;;;17.97;53.33
59190;BME280;50749;51.636;4.948;2023-02-21T09:48:16;102029.94;;;17.86;53.51
59190;BME280;50749;51.636;4.948;2023-02-21T09:50:46;102029.59;;;17.78;54.59
59190;BME280;50749;51.636;4.948;2023-02-21T09:53:18;102042.47;;;17.74;55.01
59190;BME280;50749;51.636;4.948;2023-02-21T09:55:48;102047.22;;;17.74;54.49
59190;BME280;50749;51.636;4.948;2023-02-21T09:58:17;102041.34;;;17.67;53.13
59190;BME280;50749;51.636;4.948;2023-02-21T10:00:45;102035.50;;;17.59;52.52
59190;BME280;50749;51.636;4.948;2023-02-21T10:08:55;102038.44;;;17.37;52.49
59190;BME280;50749;51.636;4.948;2023-02-21T10:17:17;102050.13;;;17.16;53.30
59190;BME280;50749;51.636;4.948;2023-02-21T10:19:48;102044.25;;;17.09;53.07
59190;BME280;50749;51.636;4.948;2023-02-21T10:22:23;102032.56;;;17.03;53.27
59190;BME280;50749;51.636;4.948;2023-02-21T10:24:50;102036.94;;;16.96;53.14
59190;BME280;50749;51.636;4.948;2023-02-21T10:27:22;102042.28;;;16.92;55.02
59190;BME280;50749;51.636;4.948;2023-02-21T10:30:00;102040.00;;;16.85;58.71
59190;BME280;50749;51.636;4.948;2023-02-21T10:32:29;102039.16;;;16.76;59.17
59190;BME280;50749;51.636;4.948;2023-02-21T10:34:56;102045.63;;;16.71;59.71
59190;BME280;50749;51.636;4.948;2023-02-21T10:37:39;102038.63;;;16.65;59.61
59190;BME280;50749;51.636;4.948;2023-02-21T10:46:04;102044.88;;;16.48;56.62
59190;BME280;50749;51.636;4.948;2023-02-21T10:48:36;102038.72;;;16.43;56.21
59190;BME280;50749;51.636;4.948;2023-02-21T10:51:15;102029.91;;;16.41;57.12
59190;BME280;50749;51.636;4.948;2023-02-21T10:53:46;102036.44;;;16.45;57.05
59190;BME280;50749;51.636;4.948;2023-02-21T10:58:52;102032.75;;;16.58;56.98
59190;BME280;50749;51.636;4.948;2023-02-21T11:01:42;102031.66;;;16.68;56.43
59190;BME280;50749;51.636;4.948;2023-02-21T11:07:13;102022.91;;;16.75;56.58
59190;BME280;50749;51.636;4.948;2023-02-21T11:09:45;102028.91;;;16.77;56.17
59190;BME280;50749;51.636;4.948;2023-02-21T11:14:42;102021.59;;;16.81;56.10
59190;BME280;50749;51.636;4.948;2023-02-21T11:17:15;102027.63;;;16.83;56.08
59190;BME280;50749;51.636;4.948;2023-02-21T11:19:43;102019.34;;;16.83;56.17
59190;BME280;50749;51.636;4.948;2023-02-21T11:22:09;102024.22;;;16.86;55.96
59190;BME280;50749;51.636;4.948;2023-02-21T11:24:52;102017.59;;;16.87;55.93
59190;BME280;50749;51.636;4.948;2023-02-21T11:27:20;102015.63;;;16.87;55.67
59190;BME280;50749;51.636;4.948;2023-02-21T11:29:48;102009.47;;;16.90;56.03
59190;BME280;50749;51.636;4.948;2023-02-21T11:32:41;102009.78;;;16.89;55.92
59190;BME280;50749;51.636;4.948;2023-02-21T11:37:54;102007.03;;;16.89;55.97
59190;BME280;50749;51.636;4.948;2023-02-21T11:43:11;102002.50;;;16.93;55.97
59190;BME280;50749;51.636;4.948;2023-02-21T11:45:42;101998.09;;;16.92;56.09
59190;BME280;50749;51.636;4.948;2023-02-21T11:48:14;101987.53;;;16.94;55.92
59190;BME280;50749;51.636;4.948;2023-02-21T11:50:48;101990.28;;;16.94;56.09
59190;BME280;50749;51.636;4.948;2023-02-21T11:53:23;101986.41;;;16.95;55.91
59190;BME280;50749;51.636;4.948;2023-02-21T12:01:38;101982.50;;;16.96;55.60
59190;BME280;50749;51.636;4.948;2023-02-21T12:09:18;101977.59;;;16.84;55.78
59190;BME280;50749;51.636;4.948;2023-02-21T12:14:39;101970.44;;;16.83;55.94
59190;BME280;50749;51.636;4.948;2023-02-21T12:23:24;101965.88;;;16.79;55.89
59190;BME280;50749;51.636;4.948;2023-02-21T12:29:05;101965.41;;;16.77;55.90
59190;BME280;50749;51.636;4.948;2023-02-21T12:34:14;101967.66;;;16.75;55.95
59190;BME280;50749;51.636;4.948;2023-02-21T12:37:04;101961.31;;;16.74;56.06
59190;BME280;50749;51.636;4.948;2023-02-21T12:50:53;101949.63;;;16.77;56.13
59190;BME280;50749;51.636;4.948;2023-02-21T12:53:25;101951.59;;;16.77;55.93
59190;BME280;50749;51.636;4.948;2023-02-21T12:56:02;101950.44;;;16.78;55.73
59190;BME280;50749;51.636;4.948;2023-02-21T12:58:40;101953.19;;;16.78;55.85
59190;BME280;50749;51.636;4.948;2023-02-21T13:01:11;101944.91;;;16.78;56.03
59190;BME280;50749;51.636;4.948;2023-02-21T13:12:21;101938.09;;;16.84;56.00
59190;BME280;50749;51.636;4.948;2023-02-21T13:15:02;101940.88;;;16.84;55.71
59190;BME280;50749;51.636;4.948;2023-02-21T13:17:30;101932.28;;;16.85;55.74
59190;BME280;50749;51.636;4.948;2023-02-21T13:20:00;101932.56;;;16.84;55.54
59190;BME280;50749;51.636;4.948;2023-02-21T13:22:31;101937.31;;;16.83;55.84
59190;BME280;50749;51.636;4.948;2023-02-21T13:25:37;101929.00;;;16.83;55.79
59190;BME280;50749;51.636;4.948;2023-02-21T13:28:14;101920.72;;;16.83;55.84
59190;BME280;50749;51.636;4.948;2023-02-21T13:30:45;101927.38;;;16.82;55.59
59190;BME280;50749;51.636;4.948;2023-02-21T13:35:52;101931.78;;;16.83;55.46
59190;BME280;50749;51.636;4.948;2023-02-21T13:38:19;101925.44;;;16.83;55.59
59190;BME280;50749;51.636;4.948;2023-02-21T13:43:27;101919.91;;;16.83;55.72
59190;BME280;50749;51.636;4.948;2023-02-21T13:45:54;101914.41;;;16.83;55.70
59190;BME280;50749;51.636;4.948;2023-02-21T13:48:26;101922.38;;;16.84;55.39
59190;BME280;50749;51.636;4.948;2023-02-21T13:50:54;101915.41;;;16.87;55.20
59190;BME280;50749;51.636;4.948;2023-02-21T13:53:27;101911.34;;;16.93;55.64
59190;BME280;50749;51.636;4.948;2023-02-21T13:58:37;101904.66;;;17.12;54.90
59190;BME280;50749;51.636;4.948;2023-02-21T14:03:54;101909.50;;;17.32;55.00
59190;BME280;50749;51.636;4.948;2023-02-21T14:06:37;101900.06;;;17.42;54.84
59190;BME280;50749;51.636;4.948;2023-02-21T14:09:12;101890.09;;;17.50;54.99
59190;BME280;50749;51.636;4.948;2023-02-21T14:11:48;101894.34;;;17.56;54.93
59190;BME280;50749;51.636;4.948;2023-02-21T14:14:37;101890.25;;;17.62;55.01
59190;BME280;50749;51.636;4.948;2023-02-21T14:17:07;101889.56;;;17.65;53.94
59190;BME280;50749;51.636;4.948;2023-02-21T14:19:40;101889.41;;;17.70;54.01
59190;BME280;50749;51.636;4.948;2023-02-21T14:22:25;101889.56;;;17.74;54.15
59190;BME280;50749;51.636;4.948;2023-02-21T14:25:05;101882.03;;;17.83;54.19
59190;BME280;50749;51.636;4.948;2023-02-21T14:27:34;101887.06;;;17.90;54.21
59190;BME280;50749;51.636;4.948;2023-02-21T14:32:46;101881.94;;;18.09;54.42
59190;BME280;50749;51.636;4.948;2023-02-21T14:35:34;101881.09;;;18.17;54.21
59190;BME280;50749;51.636;4.948;2023-02-21T14:38:04;101875.81;;;18.25;54.79
59190;BME280;50749;51.636;4.948;2023-02-21T14:45:55;101863.34;;;18.40;54.17
59190;BME280;50749;51.636;4.948;2023-02-21T14:52:04;101864.41;;;18.47;54.50
59190;BME280;50749;51.636;4.948;2023-02-21T15:05:13;101854.44;;;18.55;54.28
59190;BME280;50749;51.636;4.948;2023-02-21T15:10:28;101860.91;;;18.59;54.19
59190;BME280;50749;51.636;4.948;2023-02-21T15:12:58;101847.91;;;18.60;54.30
59190;BME280;50749;51.636;4.948;2023-02-21T15:15:40;101852.25;;;18.61;54.22
59190;BME280;50749;51.636;4.948;2023-02-21T15:18:09;101855.53;;;18.63;54.10
59190;BME280;50749;51.636;4.948;2023-02-21T15:20:38;101859.56;;;18.65;54.56
59190;BME280;50749;51.636;4.948;2023-02-21T15:23:13;101858.44;;;18.66;54.51
59190;BME280;50749;51.636;4.948;2023-02-21T15:25:41;101855.31;;;18.68;54.23
59190;BME280;50749;51.636;4.948;2023-02-21T15:28:28;101859.22;;;18.67;53.83
59190;BME280;50749;51.636;4.948;2023-02-21T15:31:08;101853.69;;;18.67;54.32
59190;BME280;50749;51.636;4.948;2023-02-21T15:33:36;101852.88;;;18.66;54.35
59190;BME280;50749;51.636;4.948;2023-02-21T15:36:06;101854.50;;;18.67;53.93
59190;BME280;50749;51.636;4.948;2023-02-21T15:44:07;101852.56;;;18.68;54.21
59190;BME280;50749;51.636;4.948;2023-02-21T15:47:03;101858.09;;;18.68;54.12
59190;BME280;50749;51.636;4.948;2023-02-21T15:49:37;101855.31;;;18.68;54.34
59190;BME280;50749;51.636;4.948;2023-02-21T15:52:05;101847.00;;;18.68;53.85